Time;durP1;ratioP1;P1;durP2;ratioP2;P2;SDS_P1;SDS_P2;PMS_P1;PMS_P2;Temp;Humidity;BMP_temperature;BMP_pressure;BME280_temperature;BME280_humidity;BME280_pressure;Samples;Min_cycle;Max_cycle;Signal;HPM_P1;HPM_P2
2021/12/30 00:00:22;;;;;;;0.80;0.40;;;12.00;99.90;;;;;;5100161;28;20185;-44
2021/12/30 00:02:48;;;;;;;1.07;0.50;;;12.00;99.90;;;;;;5100264;28;20222;-44
2021/12/30 00:05:14;;;;;;;1.03;0.80;;;12.10;99.90;;;;;;5116934;28;20477;-43
2021/12/30 00:07:41;;;;;;;0.90;0.40;;;12.10;99.90;;;;;;5099096;28;20180;-43
2021/12/30 00:10:07;;;;;;;1.50;0.77;;;12.10;99.90;;;;;;5136479;27;20706;-43
2021/12/30 00:12:33;;;;;;;2.30;0.50;;;12.10;99.90;;;;;;5127657;28;20434;-44
2021/12/30 00:14:58;;;;;;;1.20;0.90;;;12.10;99.90;;;;;;5108074;28;20427;-44
2021/12/30 00:17:24;;;;;;;1.10;0.50;;;12.10;99.90;;;;;;5126867;28;20189;-43
2021/12/30 00:19:50;;;;;;;1.50;0.60;;;12.10;99.90;;;;;;5126580;28;20179;-44
2021/12/30 00:22:16;;;;;;;1.63;0.70;;;12.10;99.90;;;;;;5113686;28;20250;-44
2021/12/30 00:24:41;;;;;;;1.50;0.70;;;12.10;99.90;;;;;;5127595;28;20187;-44
2021/12/30 00:27:07;;;;;;;1.30;0.70;;;12.20;99.90;;;;;;5130194;27;20242;-44
2021/12/30 00:29:33;;;;;;;1.00;0.57;;;12.20;99.90;;;;;;5127194;27;20278;-43
2021/12/30 00:31:59;;;;;;;1.73;0.73;;;12.20;99.90;;;;;;5132199;27;20197;-42
2021/12/30 00:34:25;;;;;;;2.73;1.10;;;12.20;99.90;;;;;;5133054;27;20419;-44
2021/12/30 00:36:50;;;;;;;1.10;0.73;;;12.20;99.90;;;;;;5131476;27;20414;-43
2021/12/30 00:39:16;;;;;;;1.27;0.50;;;12.10;99.90;;;;;;5111785;27;20167;-45
2021/12/30 00:41:42;;;;;;;1.47;0.83;;;12.20;99.90;;;;;;5135597;27;20175;-44
2021/12/30 00:44:08;;;;;;;2.50;1.10;;;12.10;99.90;;;;;;5141705;27;20550;-44
2021/12/30 00:46:34;;;;;;;2.07;1.00;;;12.10;99.90;;;;;;5141376;27;20207;-44
2021/12/30 00:48:59;;;;;;;1.90;0.80;;;12.10;99.90;;;;;;5141689;27;20205;-44
2021/12/30 00:51:25;;;;;;;1.30;0.60;;;12.10;99.90;;;;;;5142048;27;20194;-44
2021/12/30 00:53:51;;;;;;;2.60;0.73;;;12.00;99.90;;;;;;5141593;27;20562;-44
2021/12/30 00:56:17;;;;;;;3.83;0.80;;;12.10;99.90;;;;;;5140299;27;20218;-44
2021/12/30 00:58:42;;;;;;;2.17;1.00;;;12.00;99.90;;;;;;5126820;27;20219;-44
2021/12/30 01:01:08;;;;;;;1.10;0.90;;;12.10;99.90;;;;;;5141315;27;20425;-44
2021/12/30 01:03:34;;;;;;;1.40;0.80;;;12.00;99.90;;;;;;5141177;27;20245;-44
2021/12/30 01:06:00;;;;;;;3.00;0.70;;;11.90;99.90;;;;;;5140969;27;20661;-44
2021/12/30 01:08:26;;;;;;;2.00;0.90;;;11.90;99.90;;;;;;5141360;27;20184;-43
2021/12/30 01:10:52;;;;;;;1.73;1.10;;;11.90;99.90;;;;;;5122961;27;20412;-44
2021/12/30 01:13:26;;;;;;;1.80;0.70;;;11.80;99.90;;;;;;5141555;27;20179;-44
2021/12/30 01:18:30;;;;;;;1.97;1.00;;;11.70;99.90;;;;;;5141372;27;20474;-44
2021/12/30 01:20:56;;;;;;;2.43;0.73;;;11.60;99.90;;;;;;5140511;27;20412;-44
2021/12/30 01:23:25;;;;;;;0.93;0.60;;;11.60;99.90;;;;;;5139477;27;20764;-44
2021/12/30 01:25:51;;;;;;;1.47;0.60;;;11.60;99.90;;;;;;5140811;27;20677;-42
2021/12/30 01:28:17;;;;;;;1.60;0.83;;;11.60;99.90;;;;;;5140672;27;20432;-42
2021/12/30 01:30:43;;;;;;;1.90;0.63;;;11.60;99.90;;;;;;5139722;27;20700;-43
2021/12/30 01:33:09;;;;;;;1.17;0.90;;;11.60;99.90;;;;;;5139431;27;20862;-43
2021/12/30 01:35:34;;;;;;;0.97;0.53;;;11.70;99.90;;;;;;5138866;27;20440;-42
2021/12/30 01:38:01;;;;;;;1.13;0.70;;;11.60;99.90;;;;;;5139711;27;20188;-42
2021/12/30 01:40:30;;;;;;;0.90;0.60;;;11.60;99.90;;;;;;5120926;27;20238;-41
2021/12/30 01:42:56;;;;;;;2.30;0.90;;;11.60;99.90;;;;;;5139467;27;20820;-43
2021/12/30 01:45:22;;;;;;;1.47;0.93;;;11.60;99.90;;;;;;5140197;27;20401;-43
2021/12/30 01:47:53;;;;;;;1.73;0.60;;;11.60;99.90;;;;;;5140440;27;20790;-43
2021/12/30 01:50:19;;;;;;;1.20;0.60;;;11.60;99.90;;;;;;5140807;27;20416;-43
2021/12/30 01:52:45;;;;;;;1.40;0.80;;;11.60;99.90;;;;;;5140497;27;20433;-42
2021/12/30 01:55:12;;;;;;;3.27;1.00;;;11.60;99.90;;;;;;5140732;27;20482;-43
2021/12/30 01:57:38;;;;;;;0.90;0.60;;;11.50;99.90;;;;;;5140620;27;20478;-43
2021/12/30 02:00:09;;;;;;;0.90;0.50;;;11.50;99.90;;;;;;5140465;27;20420;-43
2021/12/30 02:02:34;;;;;;;1.50;0.67;;;11.60;99.90;;;;;;5140448;27;20474;-43
2021/12/30 02:05:00;;;;;;;4.33;1.10;;;11.60;99.90;;;;;;5140053;27;20490;-42
2021/12/30 02:07:25;;;;;;;1.10;0.60;;;11.60;99.90;;;;;;5140521;27;20182;-43
2021/12/30 02:10:00;;;;;;;4.23;1.10;;;11.50;99.90;;;;;;5140259;27;20190;-43
2021/12/30 02:12:26;;;;;;;1.83;0.70;;;11.50;99.90;;;;;;5138364;27;20188;-43
2021/12/30 02:14:52;;;;;;;2.70;1.17;;;11.50;99.90;;;;;;5129387;27;20443;-43
2021/12/30 02:17:29;;;;;;;1.53;0.80;;;11.50;99.90;;;;;;5139954;27;20413;-43
2021/12/30 02:20:02;;;;;;;2.07;0.93;;;11.60;99.90;;;;;;5146854;27;20626;-43
2021/12/30 02:22:27;;;;;;;2.20;0.87;;;11.50;99.90;;;;;;5160703;27;20451;-43
2021/12/30 02:24:53;;;;;;;2.10;0.90;;;11.50;99.90;;;;;;5160359;27;20589;-43
2021/12/30 02:27:19;;;;;;;4.40;1.23;;;11.40;99.90;;;;;;5160416;27;20181;-43
2021/12/30 02:29:47;;;;;;;2.10;1.00;;;11.40;99.90;;;;;;5160589;27;20419;-43
2021/12/30 02:32:13;;;;;;;5.43;1.60;;;11.40;99.90;;;;;;5160261;27;20264;-44
2021/12/30 02:34:39;;;;;;;2.20;0.70;;;11.40;99.90;;;;;;5159902;27;20524;-43
2021/12/30 02:37:05;;;;;;;1.43;0.90;;;11.40;99.90;;;;;;5159380;27;20597;-43
2021/12/30 02:39:31;;;;;;;2.37;0.93;;;11.40;99.90;;;;;;5159063;27;20175;-43
2021/12/30 02:41:57;;;;;;;2.10;0.70;;;11.40;99.90;;;;;;5159602;27;20497;-43
2021/12/30 02:44:22;;;;;;;4.20;0.90;;;11.40;99.90;;;;;;5159619;27;20237;-43
2021/12/30 02:46:52;;;;;;;0.83;0.60;;;11.40;99.90;;;;;;5160057;27;20234;-41
2021/12/30 02:49:19;;;;;;;3.37;0.97;;;11.50;99.90;;;;;;5141389;27;20514;-43
2021/12/30 02:51:44;;;;;;;1.83;0.80;;;11.50;99.90;;;;;;5159466;27;20549;-43
2021/12/30 02:54:10;;;;;;;2.70;1.03;;;11.50;99.90;;;;;;5160076;27;20426;-43
2021/12/30 02:56:36;;;;;;;1.90;1.00;;;11.50;99.90;;;;;;5159983;27;20184;-43
2021/12/30 02:59:02;;;;;;;1.90;0.90;;;11.50;99.90;;;;;;5159731;27;20208;-43
2021/12/30 03:01:30;;;;;;;3.10;1.00;;;11.50;99.90;;;;;;5159944;27;20445;-43
2021/12/30 03:03:58;;;;;;;1.70;0.90;;;11.50;99.90;;;;;;5141122;27;20528;-43
2021/12/30 03:06:27;;;;;;;2.27;1.20;;;11.50;99.90;;;;;;5124405;27;20529;-43
2021/12/30 03:08:53;;;;;;;1.83;0.87;;;11.50;99.90;;;;;;5118491;28;20535;-41
2021/12/30 03:11:22;;;;;;;4.50;1.10;;;11.50;99.90;;;;;;5118259;28;20425;-43
2021/12/30 03:13:48;;;;;;;1.57;1.00;;;11.50;99.90;;;;;;5118407;28;20408;-43
2021/12/30 03:16:25;;;;;;;1.23;0.90;;;11.60;99.90;;;;;;5100847;28;20396;-42
2021/12/30 03:18:52;;;;;;;2.70;0.90;;;11.60;99.90;;;;;;5118542;28;20447;-43
2021/12/30 03:21:19;;;;;;;2.37;1.30;;;11.50;99.90;;;;;;5118548;28;20499;-43
2021/12/30 03:23:45;;;;;;;4.97;1.70;;;11.50;99.90;;;;;;5118007;28;20459;-42
2021/12/30 03:26:11;;;;;;;2.27;1.37;;;11.50;99.90;;;;;;5117768;28;20403;-43
2021/12/30 03:28:39;;;;;;;2.13;1.40;;;11.60;99.90;;;;;;5117509;28;20743;-42
2021/12/30 03:31:08;;;;;;;1.93;1.20;;;11.60;99.90;;;;;;5118593;28;20250;-43
2021/12/30 03:33:34;;;;;;;2.03;1.83;;;11.50;99.90;;;;;;5117988;28;20411;-43
2021/12/30 03:36:01;;;;;;;2.70;1.37;;;11.60;99.90;;;;;;5117834;28;20422;-43
2021/12/30 03:38:32;;;;;;;2.20;1.60;;;11.70;99.90;;;;;;5118343;28;20810;-43
2021/12/30 03:40:59;;;;;;;1.50;1.40;;;11.70;99.90;;;;;;5118468;28;20434;-43
2021/12/30 03:43:25;;;;;;;2.27;1.43;;;11.80;99.90;;;;;;5118053;28;20746;-43
2021/12/30 03:45:51;;;;;;;1.80;1.30;;;11.70;99.90;;;;;;5117968;28;20431;-43
2021/12/30 03:48:16;;;;;;;1.60;1.10;;;11.70;99.90;;;;;;5118412;28;20485;-43
2021/12/30 03:50:44;;;;;;;2.23;1.10;;;11.60;99.90;;;;;;5119920;28;20255;-43
2021/12/30 03:53:12;;;;;;;3.00;1.43;;;11.60;99.90;;;;;;5129522;28;20263;-43
2021/12/30 03:55:37;;;;;;;2.40;1.27;;;11.60;99.90;;;;;;5138994;28;20428;-43
2021/12/30 03:58:03;;;;;;;1.40;0.97;;;11.60;99.90;;;;;;5137638;28;20459;-43
2021/12/30 04:00:30;;;;;;;1.33;1.00;;;11.60;99.90;;;;;;5138334;28;20359;-43
2021/12/30 04:02:55;;;;;;;1.73;0.73;;;11.60;99.90;;;;;;5134841;27;20483;-43
2021/12/30 04:05:22;;;;;;;2.70;1.20;;;11.70;99.90;;;;;;5124226;27;20994;-43
2021/12/30 04:07:47;;;;;;;2.03;0.80;;;11.70;99.90;;;;;;5110688;27;20187;-43
2021/12/30 04:10:15;;;;;;;3.20;1.00;;;11.70;99.90;;;;;;5125007;27;20441;-43
2021/12/30 04:12:41;;;;;;;1.23;0.63;;;11.70;99.90;;;;;;5121225;28;20176;-43
2021/12/30 04:15:08;;;;;;;2.53;0.77;;;11.80;99.90;;;;;;5122005;27;20532;-43
2021/12/30 04:17:34;;;;;;;1.20;0.60;;;11.80;99.90;;;;;;5113853;28;20448;-42
2021/12/30 04:20:01;;;;;;;0.80;0.63;;;11.70;99.90;;;;;;5120819;28;20420;-43
2021/12/30 04:22:27;;;;;;;1.33;0.63;;;11.80;99.90;;;;;;5121554;28;20230;-43
2021/12/30 04:24:53;;;;;;;2.10;0.70;;;11.80;99.90;;;;;;5121356;28;20497;-43
2021/12/30 04:27:18;;;;;;;1.80;0.70;;;11.70;99.90;;;;;;5123625;27;20320;-41
2021/12/30 04:29:44;;;;;;;1.47;0.60;;;11.70;99.90;;;;;;5130307;27;20186;-43
2021/12/30 04:32:10;;;;;;;0.93;0.60;;;11.70;99.90;;;;;;5103332;28;20930;-43
2021/12/30 04:34:36;;;;;;;2.30;0.60;;;11.70;99.90;;;;;;5121193;28;20180;-43
2021/12/30 04:37:02;;;;;;;1.47;0.90;;;11.70;99.90;;;;;;5121305;28;21023;-43
2021/12/30 04:39:30;;;;;;;1.30;0.70;;;11.70;99.90;;;;;;5120437;28;20179;-43
2021/12/30 04:42:01;;;;;;;0.87;0.43;;;11.70;99.90;;;;;;5120451;28;20172;-43
2021/12/30 04:44:27;;;;;;;1.60;0.70;;;11.70;99.90;;;;;;5120446;28;20447;-43
2021/12/30 04:46:53;;;;;;;1.07;0.53;;;11.70;99.90;;;;;;5120637;28;20396;-43
2021/12/30 04:49:24;;;;;;;0.90;0.50;;;11.70;99.90;;;;;;5120672;28;20485;-41
2021/12/30 04:51:50;;;;;;;1.67;0.50;;;11.70;99.90;;;;;;5120250;28;20170;-42
2021/12/30 04:54:17;;;;;;;2.60;0.87;;;11.70;99.90;;;;;;5121051;28;20826;-42
2021/12/30 04:56:42;;;;;;;2.23;0.83;;;11.70;99.90;;;;;;5120738;28;20502;-42
2021/12/30 04:59:08;;;;;;;0.80;0.50;;;11.80;99.90;;;;;;5121072;28;20455;-42
2021/12/30 05:01:34;;;;;;;2.20;0.60;;;11.80;99.90;;;;;;5121157;28;20176;-42
2021/12/30 05:03:59;;;;;;;0.80;0.50;;;11.80;99.90;;;;;;5123378;27;20222;-45
2021/12/30 05:06:25;;;;;;;1.10;0.43;;;11.80;99.90;;;;;;5130156;27;20304;-45
2021/12/30 05:08:50;;;;;;;0.80;0.40;;;11.80;99.90;;;;;;5120253;28;20178;-45
2021/12/30 05:11:16;;;;;;;1.00;0.40;;;11.90;99.90;;;;;;5120126;28;20183;-45
2021/12/30 05:13:42;;;;;;;1.13;0.83;;;11.90;99.90;;;;;;5119796;28;20172;-45
2021/12/30 05:16:07;;;;;;;1.50;0.40;;;11.90;99.90;;;;;;5120474;28;20196;-45
2021/12/30 05:18:34;;;;;;;1.00;0.40;;;11.90;99.90;;;;;;5120366;28;20188;-45
2021/12/30 05:21:01;;;;;;;1.23;0.40;;;12.00;99.90;;;;;;5120064;28;20204;-45
2021/12/30 05:23:30;;;;;;;0.80;0.50;;;11.90;99.90;;;;;;5118780;28;20452;-45
2021/12/30 05:25:56;;;;;;;1.27;0.47;;;11.90;99.90;;;;;;5118739;28;20854;-45
2021/12/30 05:28:22;;;;;;;1.17;0.40;;;11.90;99.90;;;;;;5118987;28;20407;-45
2021/12/30 05:30:48;;;;;;;0.60;0.30;;;12.00;99.90;;;;;;5118528;28;20459;-45
2021/12/30 05:33:14;;;;;;;0.80;0.33;;;11.90;99.90;;;;;;5121290;27;20188;-45
2021/12/30 05:35:39;;;;;;;1.10;0.50;;;11.90;99.90;;;;;;5127086;27;20192;-45
2021/12/30 05:38:05;;;;;;;1.10;0.37;;;11.90;99.90;;;;;;5119325;28;20239;-45
2021/12/30 05:40:32;;;;;;;1.00;0.40;;;11.90;99.90;;;;;;5119059;28;20673;-45
2021/12/30 05:42:58;;;;;;;1.00;0.40;;;11.90;99.90;;;;;;5118840;28;20465;-45
2021/12/30 05:45:24;;;;;;;1.10;0.30;;;11.90;99.90;;;;;;5118519;28;20431;-45
2021/12/30 05:47:53;;;;;;;0.80;0.40;;;11.90;99.90;;;;;;5118675;28;20168;-45
2021/12/30 05:50:25;;;;;;;1.17;0.30;;;11.90;99.90;;;;;;5118720;28;20425;-45
2021/12/30 05:52:51;;;;;;;1.17;0.50;;;11.90;99.90;;;;;;5119359;28;20428;-46
2021/12/30 05:55:17;;;;;;;0.80;0.40;;;11.90;99.90;;;;;;5118204;28;20428;-46
2021/12/30 05:57:43;;;;;;;1.17;0.70;;;11.80;99.90;;;;;;5118995;28;20774;-46
2021/12/30 06:00:13;;;;;;;0.90;0.33;;;11.80;99.90;;;;;;5118285;28;20445;-46
2021/12/30 06:02:38;;;;;;;1.00;0.30;;;11.80;99.90;;;;;;5134881;27;20486;-46
2021/12/30 06:05:05;;;;;;;0.70;0.30;;;11.90;99.90;;;;;;5120462;27;20486;-46
2021/12/30 06:07:31;;;;;;;0.73;0.33;;;11.90;99.90;;;;;;5138408;27;20188;-46
2021/12/30 06:09:57;;;;;;;0.70;0.30;;;11.90;99.90;;;;;;5137531;27;20428;-46
2021/12/30 06:12:23;;;;;;;0.60;0.30;;;11.90;99.90;;;;;;5134368;27;20780;-46
2021/12/30 06:14:48;;;;;;;2.10;0.40;;;11.90;99.90;;;;;;5127533;27;20185;-46
2021/12/30 06:17:15;;;;;;;0.70;0.40;;;11.90;99.90;;;;;;5117023;28;20249;-45
2021/12/30 06:19:45;;;;;;;1.13;0.40;;;12.00;99.90;;;;;;5116777;28;20177;-46
2021/12/30 06:22:12;;;;;;;1.30;0.40;;;12.00;99.90;;;;;;5119892;27;20404;-46
2021/12/30 06:24:38;;;;;;;1.17;0.40;;;12.00;99.90;;;;;;5138674;27;20426;-46
2021/12/30 06:27:03;;;;;;;1.10;0.40;;;12.00;99.90;;;;;;5138200;27;20423;-46
2021/12/30 06:29:29;;;;;;;0.80;0.40;;;11.90;99.90;;;;;;5137558;27;20420;-46
2021/12/30 06:31:55;;;;;;;1.20;0.50;;;12.00;99.90;;;;;;5136661;27;20180;-46
2021/12/30 06:34:20;;;;;;;0.70;0.30;;;11.90;99.90;;;;;;5118956;27;20506;-45
2021/12/30 06:36:46;;;;;;;1.30;0.30;;;12.00;99.90;;;;;;5137537;27;20564;-46
2021/12/30 06:39:12;;;;;;;0.80;0.40;;;12.00;99.90;;;;;;5138438;27;20239;-46
2021/12/30 06:41:37;;;;;;;0.70;0.30;;;11.90;99.90;;;;;;5137754;27;20181;-46
2021/12/30 06:44:03;;;;;;;0.73;0.40;;;11.90;99.90;;;;;;5137374;27;20242;-46
2021/12/30 06:46:29;;;;;;;1.73;0.50;;;11.90;99.90;;;;;;5137975;27;20274;-46
2021/12/30 06:48:55;;;;;;;0.83;0.37;;;11.90;99.90;;;;;;5138440;27;20411;-46
2021/12/30 06:51:26;;;;;;;0.80;0.43;;;11.90;99.90;;;;;;5120302;27;20195;-46
2021/12/30 06:53:54;;;;;;;0.70;0.40;;;11.90;99.90;;;;;;5137892;27;20600;-46
2021/12/30 06:56:21;;;;;;;0.60;0.30;;;11.90;99.90;;;;;;5138212;27;20510;-46
2021/12/30 06:58:47;;;;;;;1.03;0.50;;;11.80;99.90;;;;;;5137510;27;20445;-46
2021/12/30 07:01:12;;;;;;;0.80;0.40;;;11.90;99.90;;;;;;5128300;27;20906;-46
2021/12/30 07:03:39;;;;;;;1.43;0.40;;;11.90;99.90;;;;;;5117397;28;20475;-46
2021/12/30 07:06:04;;;;;;;1.10;0.50;;;11.90;99.90;;;;;;5117627;28;20555;-46
2021/12/30 07:08:30;;;;;;;1.00;0.47;;;11.80;99.90;;;;;;5116996;28;20417;-46
2021/12/30 07:10:56;;;;;;;0.70;0.33;;;11.80;99.90;;;;;;5117350;28;20204;-46
2021/12/30 07:13:21;;;;;;;0.80;0.30;;;11.80;99.90;;;;;;5116032;28;20177;-45
2021/12/30 07:15:47;;;;;;;0.83;0.40;;;11.80;99.90;;;;;;5116796;28;20226;-46
2021/12/30 07:18:12;;;;;;;0.90;0.40;;;11.80;99.90;;;;;;5098451;28;20193;-46
2021/12/30 07:20:38;;;;;;;1.93;0.97;;;11.80;99.90;;;;;;5116951;28;20575;-46
2021/12/30 07:23:06;;;;;;;0.80;0.40;;;11.80;99.90;;;;;;5116751;28;20220;-45
2021/12/30 07:25:32;;;;;;;0.93;0.50;;;11.80;99.90;;;;;;5116935;28;20194;-46
2021/12/30 07:27:58;;;;;;;1.10;0.57;;;11.90;99.90;;;;;;5116248;28;20411;-46
2021/12/30 07:30:25;;;;;;;1.90;0.70;;;11.80;99.90;;;;;;5115678;28;20284;-46
2021/12/30 07:32:51;;;;;;;1.00;0.57;;;11.90;99.90;;;;;;5115477;28;20172;-46
2021/12/30 07:35:18;;;;;;;1.47;0.43;;;11.90;99.90;;;;;;5115382;28;20442;-45
2021/12/30 07:37:44;;;;;;;1.20;0.93;;;11.90;99.90;;;;;;5117657;28;20423;-45
2021/12/30 07:40:10;;;;;;;3.37;1.43;;;11.90;99.90;;;;;;5120044;28;20487;-45
2021/12/30 07:42:36;;;;;;;0.73;0.40;;;11.90;99.90;;;;;;5120625;28;20212;-46
2021/12/30 07:45:03;;;;;;;0.80;0.50;;;11.90;99.90;;;;;;5102412;28;20424;-45
2021/12/30 07:47:28;;;;;;;1.73;0.40;;;12.00;99.90;;;;;;5121622;28;20423;-46
2021/12/30 07:49:54;;;;;;;1.00;0.67;;;12.00;99.90;;;;;;5121600;28;20487;-46
2021/12/30 07:52:20;;;;;;;1.10;0.60;;;12.00;99.90;;;;;;5121745;28;20309;-47
2021/12/30 07:54:45;;;;;;;0.90;0.60;;;12.00;99.90;;;;;;5121864;28;20166;-45
2021/12/30 07:57:12;;;;;;;0.83;0.43;;;12.00;99.90;;;;;;5121953;28;20173;-45
2021/12/30 07:59:37;;;;;;;1.50;0.50;;;12.00;99.90;;;;;;5120926;28;20167;-45
2021/12/30 08:02:04;;;;;;;0.93;0.60;;;12.00;99.90;;;;;;5129267;27;20854;-45
2021/12/30 08:04:29;;;;;;;0.90;0.60;;;12.10;99.90;;;;;;5103036;28;20206;-46
2021/12/30 08:06:56;;;;;;;0.70;0.40;;;12.10;99.90;;;;;;5120825;28;20748;-46
2021/12/30 08:09:21;;;;;;;0.80;0.50;;;12.20;99.90;;;;;;5103021;28;20204;-46
2021/12/30 08:11:47;;;;;;;0.90;0.57;;;12.20;99.90;;;;;;5130811;27;20429;-48
2021/12/30 08:14:13;;;;;;;1.07;0.70;;;12.30;99.90;;;;;;5133149;27;20199;-46
2021/12/30 08:16:38;;;;;;;1.77;0.70;;;12.40;99.90;;;;;;5124303;27;20200;-46
2021/12/30 08:19:04;;;;;;;0.70;0.40;;;12.40;99.90;;;;;;5119807;28;20711;-46
2021/12/30 08:21:29;;;;;;;0.70;0.30;;;12.40;99.90;;;;;;5119702;28;20575;-46
2021/12/30 08:23:55;;;;;;;0.80;0.50;;;12.60;99.90;;;;;;5120007;28;20203;-46
2021/12/30 08:26:21;;;;;;;1.03;0.50;;;12.60;99.90;;;;;;5121304;28;20185;-46
2021/12/30 08:28:47;;;;;;;2.33;0.60;;;12.70;99.90;;;;;;5120594;28;20180;-46
2021/12/30 08:31:14;;;;;;;1.00;0.50;;;12.80;99.90;;;;;;5102414;28;20437;-46
2021/12/30 08:33:42;;;;;;;1.33;0.50;;;12.90;99.90;;;;;;5120676;28;20183;-46
2021/12/30 08:36:08;;;;;;;2.40;0.60;;;12.90;99.90;;;;;;5119277;28;20500;-45
2021/12/30 08:38:36;;;;;;;0.97;0.43;;;13.10;99.90;;;;;;5082352;28;20439;-46
2021/12/30 08:41:02;;;;;;;0.80;0.40;;;13.30;99.90;;;;;;5118321;28;20426;-46
2021/12/30 08:43:27;;;;;;;0.80;0.50;;;13.40;99.90;;;;;;5117858;28;20561;-45
2021/12/30 08:45:53;;;;;;;0.80;0.50;;;13.50;99.90;;;;;;5118296;28;20550;-45
2021/12/30 08:48:22;;;;;;;0.90;0.47;;;13.70;99.90;;;;;;5117279;28;20183;-46
2021/12/30 08:50:47;;;;;;;1.40;0.70;;;13.90;99.90;;;;;;5117852;28;20188;-46
2021/12/30 08:53:17;;;;;;;1.10;0.40;;;14.10;99.90;;;;;;5083644;28;20761;-46
2021/12/30 08:55:44;;;;;;;2.07;0.53;;;14.30;99.90;;;;;;5101346;28;20192;-46
2021/12/30 08:58:11;;;;;;;1.13;0.53;;;14.70;99.90;;;;;;5119531;28;20533;-45
2021/12/30 09:00:38;;;;;;;1.50;0.60;;;14.90;99.90;;;;;;5118820;28;20409;-46
2021/12/30 09:03:10;;;;;;;1.40;0.50;;;15.30;99.90;;;;;;5117377;28;20211;-46
2021/12/30 09:05:36;;;;;;;1.10;0.70;;;15.60;99.90;;;;;;5118138;28;20876;-46
2021/12/30 09:08:02;;;;;;;0.83;0.30;;;16.00;99.90;;;;;;5099534;28;20444;-46
2021/12/30 09:10:34;;;;;;;1.27;0.30;;;16.30;99.90;;;;;;5119168;28;20843;-46
2021/12/30 09:12:59;;;;;;;0.80;0.40;;;16.80;99.90;;;;;;5119250;28;20428;-46
2021/12/30 09:15:25;;;;;;;0.70;0.37;;;17.70;98.80;;;;;;5120120;28;20408;-46
2021/12/30 09:17:52;;;;;;;1.40;0.50;;;18.20;96.50;;;;;;5119535;28;20268;-46
2021/12/30 09:20:18;;;;;;;1.40;0.50;;;18.50;95.90;;;;;;5119029;28;20429;-47
2021/12/30 09:22:44;;;;;;;0.80;0.40;;;18.60;95.70;;;;;;5119001;28;20910;-46
2021/12/30 09:25:11;;;;;;;0.90;0.43;;;19.10;95.50;;;;;;5118679;28;20421;-46
2021/12/30 09:27:38;;;;;;;1.00;0.40;;;19.40;94.00;;;;;;5118902;28;20433;-46
2021/12/30 09:30:11;;;;;;;0.80;0.30;;;19.30;93.70;;;;;;5119648;28;20409;-47
2021/12/30 09:32:37;;;;;;;0.73;0.33;;;19.40;93.70;;;;;;5118364;28;20444;-47
2021/12/30 09:35:06;;;;;;;0.90;0.50;;;19.60;93.80;;;;;;5100193;28;20968;-46
2021/12/30 09:37:32;;;;;;;0.90;0.50;;;19.50;93.20;;;;;;5118434;28;20444;-46
2021/12/30 09:39:59;;;;;;;1.47;0.50;;;19.70;92.90;;;;;;5103983;28;21127;-46
2021/12/30 09:42:25;;;;;;;0.90;0.50;;;19.60;93.60;;;;;;5083628;28;20546;-47
2021/12/30 09:44:51;;;;;;;0.90;0.50;;;19.90;92.80;;;;;;5117901;28;20528;-47
2021/12/30 09:47:17;;;;;;;1.00;0.50;;;19.50;92.90;;;;;;5117644;28;20707;-45
2021/12/30 09:49:42;;;;;;;1.20;0.53;;;19.50;93.00;;;;;;5099958;28;20186;-46
2021/12/30 09:52:10;;;;;;;1.00;0.57;;;19.30;93.50;;;;;;5099779;28;20435;-47
2021/12/30 09:54:36;;;;;;;1.00;0.60;;;19.40;94.10;;;;;;5117461;28;20556;-47
2021/12/30 09:57:01;;;;;;;1.10;0.80;;;19.70;93.40;;;;;;5117051;28;20510;-46
2021/12/30 09:59:29;;;;;;;1.30;0.70;;;19.80;92.70;;;;;;5117696;28;20236;-46
2021/12/30 10:01:55;;;;;;;1.40;0.60;;;19.20;93.00;;;;;;5116717;28;20451;-46
2021/12/30 10:04:32;;;;;;;1.40;0.60;;;19.20;93.50;;;;;;5116801;28;20461;-46
2021/12/30 10:07:01;;;;;;;1.53;0.90;;;18.70;94.40;;;;;;5115556;28;20285;-46
2021/12/30 10:09:50;;;;;;;1.37;0.73;;;18.60;94.00;;;;;;5116605;28;20398;-45
2021/12/30 10:12:39;;;;;;;1.27;0.53;;;18.10;94.80;;;;;;5103809;27;20462;-45
2021/12/30 10:15:08;;;;;;;0.90;0.50;;;17.60;95.70;;;;;;5102361;27;20439;-45
2021/12/30 10:17:34;;;;;;;1.77;0.70;;;17.40;96.40;;;;;;5138554;27;20419;-46
2021/12/30 10:20:16;;;;;;;1.90;1.30;;;17.50;97.00;;;;;;5138633;27;20427;-45
2021/12/30 10:22:41;;;;;;;2.73;1.30;;;17.70;96.20;;;;;;5123525;27;20466;-45
2021/12/30 10:25:32;;;;;;;1.47;0.93;;;17.50;96.40;;;;;;5134227;27;20437;-45
2021/12/30 10:28:28;;;;;;;1.53;1.03;;;17.20;97.10;;;;;;5098925;28;20180;-46
2021/12/30 10:31:12;;;;;;;1.20;0.70;;;17.00;97.60;;;;;;5118191;28;20836;-46
2021/12/30 10:33:49;;;;;;;3.10;1.00;;;16.90;97.90;;;;;;5126505;27;21120;-46
2021/12/30 10:36:18;;;;;;;1.20;0.70;;;17.10;98.10;;;;;;5125483;27;20458;-46
2021/12/30 10:38:43;;;;;;;1.60;0.93;;;17.30;97.50;;;;;;5138094;27;20450;-46
2021/12/30 10:41:09;;;;;;;1.33;0.60;;;17.60;97.60;;;;;;5137407;27;20423;-46
2021/12/30 10:46:16;;;;;;;1.50;1.00;;;17.30;97.10;;;;;;5136943;27;20179;-46
2021/12/30 10:49:05;;;;;;;1.13;0.50;;;17.40;97.20;;;;;;5137005;27;20433;-46
2021/12/30 10:51:31;;;;;;;1.43;0.60;;;17.40;97.50;;;;;;5123876;27;20782;-46
2021/12/30 10:53:57;;;;;;;1.10;0.40;;;17.80;96.60;;;;;;5136578;27;20421;-46
2021/12/30 10:56:35;;;;;;;1.63;0.40;;;18.00;95.80;;;;;;5118401;27;20248;-47
2021/12/30 10:59:14;;;;;;;1.20;0.33;;;18.30;95.00;;;;;;5138082;27;20430;-47
2021/12/30 11:01:43;;;;;;;0.70;0.30;;;18.40;94.70;;;;;;5136471;27;20420;-46
2021/12/30 11:04:10;;;;;;;0.70;0.30;;;18.40;94.70;;;;;;5117154;27;20457;-46
2021/12/30 11:06:36;;;;;;;0.90;0.57;;;18.50;94.50;;;;;;5136197;27;20525;-46
2021/12/30 11:09:14;;;;;;;1.40;0.40;;;19.20;94.10;;;;;;5136787;27;20469;-47
2021/12/30 11:11:44;;;;;;;0.70;0.40;;;19.60;92.80;;;;;;5135232;27;20411;-47
2021/12/30 11:14:16;;;;;;;0.80;0.40;;;19.80;92.40;;;;;;5135524;27;20408;-47
2021/12/30 11:16:59;;;;;;;1.20;0.33;;;20.20;92.20;;;;;;5109821;28;20444;-47
2021/12/30 11:19:26;;;;;;;0.70;0.30;;;20.50;91.10;;;;;;5120901;27;20765;-47
2021/12/30 11:21:53;;;;;;;0.80;0.37;;;20.20;91.30;;;;;;5129577;27;20443;-47
2021/12/30 11:24:19;;;;;;;0.90;0.50;;;21.10;91.10;;;;;;5118532;27;20495;-47
2021/12/30 11:26:46;;;;;;;0.80;0.30;;;21.90;89.60;;;;;;5135867;27;20742;-47
2021/12/30 11:29:11;;;;;;;1.20;0.50;;;22.20;87.70;;;;;;5137554;27;20814;-47
2021/12/30 11:31:38;;;;;;;2.57;0.47;;;22.00;86.30;;;;;;5138048;27;20409;-46
2021/12/30 11:34:04;;;;;;;1.30;0.50;;;21.60;88.40;;;;;;5120093;28;20180;-47
2021/12/30 11:36:33;;;;;;;1.80;0.57;;;21.90;88.30;;;;;;5134094;28;20434;-46
2021/12/30 11:39:03;;;;;;;1.10;0.50;;;22.10;87.30;;;;;;5107083;28;20719;-46
2021/12/30 11:41:30;;;;;;;1.00;0.40;;;23.20;83.90;;;;;;5112107;28;20437;-46
2021/12/30 11:43:56;;;;;;;0.77;0.33;;;22.90;83.20;;;;;;5116177;28;20543;-46
2021/12/30 11:46:43;;;;;;;0.80;0.37;;;23.00;82.60;;;;;;5117958;28;20426;-46
2021/12/30 11:49:12;;;;;;;1.00;0.40;;;22.70;82.40;;;;;;5117335;28;20176;-46
2021/12/30 11:51:52;;;;;;;0.80;0.40;;;22.60;82.70;;;;;;5116584;28;20413;-47
2021/12/30 11:54:50;;;;;;;1.20;0.30;;;22.40;82.30;;;;;;5099401;28;20523;-46
2021/12/30 11:57:32;;;;;;;1.00;0.30;;;21.30;84.70;;;;;;5065733;28;20541;-47
2021/12/30 12:00:37;;;;;;;0.90;0.50;;;20.40;87.90;;;;;;5098459;28;20459;-46
2021/12/30 12:03:48;;;;;;;0.80;0.33;;;20.10;89.50;;;;;;5117213;28;20468;-47
2021/12/30 12:06:27;;;;;;;0.80;0.30;;;19.20;90.90;;;;;;5106383;28;20877;-47
2021/12/30 12:09:32;;;;;;;1.03;0.30;;;18.50;92.40;;;;;;5115894;28;20459;-47
2021/12/30 12:12:03;;;;;;;0.87;0.30;;;17.90;93.30;;;;;;5036629;28;20806;-47
2021/12/30 12:14:39;;;;;;;0.80;0.40;;;17.40;95.30;;;;;;5053676;28;20444;-47
2021/12/30 12:17:06;;;;;;;0.90;0.47;;;17.80;94.90;;;;;;5094126;28;20829;-46
2021/12/30 12:19:47;;;;;;;0.80;0.30;;;18.20;94.10;;;;;;5124025;28;20417;-47
2021/12/30 12:22:18;;;;;;;1.37;0.30;;;17.90;94.00;;;;;;5124665;28;20443;-47
2021/12/30 12:25:11;;;;;;;0.80;0.40;;;17.90;94.40;;;;;;5132112;27;20466;-46
2021/12/30 12:27:48;;;;;;;0.80;0.30;;;17.50;95.00;;;;;;5103421;27;20455;-47
2021/12/30 12:30:25;;;;;;;0.80;0.30;;;17.30;95.70;;;;;;5137669;27;20412;-47
2021/12/30 12:32:51;;;;;;;0.90;0.53;;;17.40;95.70;;;;;;5138199;27;20426;-47
2021/12/30 12:35:17;;;;;;;0.90;0.40;;;17.30;95.70;;;;;;5138373;27;20426;-47
2021/12/30 12:37:44;;;;;;;0.70;0.30;;;16.80;96.30;;;;;;5137518;27;20173;-46
2021/12/30 12:40:16;;;;;;;1.30;0.50;;;16.50;97.00;;;;;;5137554;27;20170;-47
2021/12/30 12:42:53;;;;;;;0.90;0.40;;;16.30;97.90;;;;;;5138299;27;20473;-47
2021/12/30 12:45:35;;;;;;;0.90;0.40;;;16.20;98.10;;;;;;5138915;27;20405;-47
2021/12/30 12:48:22;;;;;;;0.80;0.40;;;15.80;98.60;;;;;;5139316;27;20534;-47
2021/12/30 12:50:48;;;;;;;1.40;0.80;;;15.80;99.10;;;;;;5118323;28;20521;-46
2021/12/30 12:53:28;;;;;;;0.87;0.50;;;15.60;99.40;;;;;;5118565;28;20574;-46
2021/12/30 12:55:57;;;;;;;0.90;0.40;;;15.50;99.60;;;;;;5119809;28;20475;-47
2021/12/30 12:58:26;;;;;;;1.07;0.40;;;15.40;99.80;;;;;;5127811;27;20468;-46